Aegean Princess — ZDID9 — position and weather

sailwx.info

Track history (hours):
 
Tides and Currents Weather Stations Pressure Air Temp Water Temp Dewpoint Dewpoint Depression Visibility Wind Speed Wind Dir Waves Ship Positions

Aegean Princess

Last reported at 2014-Oct-30 15:26 UTC. Time now 2014-Oct-30 15:54 UTC.
Position N 36°07' W 005°19'.

Length 100 m; draft 6.6 m.

Type: Ship. MMSI: 236111476.

Date/timePositionNaut miles runAvg speedWind from/ knotsBaromVisibWave heightAir tempDewpointWater temp
2014-Oct-30 15:26N 36°07' W 005°19'0 0.0
2014-Oct-30 14:32N 36°07' W 005°19'2 2.1
2014-Oct-30 13:33N 36°06' W 005°20'3 2.9
2014-Oct-30 12:33N 36°08' W 005°22'0 0.0
2014-Oct-30 11:06N 36°08' W 005°22'0 0.0
2014-Oct-30 10:33N 36°08' W 005°22'0 0.1
2014-Oct-30 09:34N 36°08' W 005°22'3 2.9
2014-Oct-30 08:34N 36°07' W 005°19'1 0.4
2014-Oct-30 07:18N 36°07' W 005°19'0 0.0
2014-Oct-30 06:30N 36°07' W 005°19'0 0.0
2014-Oct-30 05:18N 36°07' W 005°19'0 0.0
2014-Oct-30 04:30N 36°07' W 005°19'0 0.0
2014-Oct-30 03:24N 36°07' W 005°19'0 0.0
2014-Oct-30 02:30N 36°07' W 005°19'0 0.0
2014-Oct-30 01:30N 36°07' W 005°18'0 0.0
2014-Oct-30 00:33N 36°07' W 005°19'0 0.0
2014-Oct-29 23:33N 36°07' W 005°19'0 0.0
2014-Oct-29 22:24N 36°07' W 005°19'0 0.0
2014-Oct-29 21:09N 36°08' W 005°19'0 0.0
2014-Oct-29 19:30N 36°07' W 005°19'0 0.0
2014-Oct-29 18:24N 36°07' W 005°19'3 3.6
2014-Oct-29 17:33N 36°06' W 005°22'2 1.6
2014-Oct-29 16:27N 36°07' W 005°22'0 0.1
2014-Oct-29 14:24N 36°08' W 005°23'1 1.2
2014-Oct-29 13:33N 36°08' W 005°23'8 8.5
2014-Oct-29 12:33N 35°60' W 005°23'7 1.7
2014-Oct-29 08:32N 35°56' W 005°30'7 6.7
2014-Oct-29 07:33N 36°01' W 005°25'8 8.1
2014-Oct-29 06:33N 36°09' W 005°22'0 0.0
2014-Oct-28 20:25N 36°09' W 005°22'1 0.7
2014-Oct-28 19:32N 36°09' W 005°22'0 0.1
2014-Oct-28 18:32N 36°09' W 005°22'0 0.1
2014-Oct-28 17:26N 36°09' W 005°22'0 0.1
2014-Oct-28 16:26N 36°09' W 005°22'0 0.0
2014-Oct-28 15:17N 36°09' W 005°22'1 0.8
2014-Oct-28 14:33N 36°09' W 005°22'0 0.1
2014-Oct-28 13:26N 36°09' W 005°23'0 0.0
2014-Oct-28 12:32N 36°09' W 005°23'0 0.0
2014-Oct-28 09:20N 36°09' W 005°23'0 0.1
2014-Oct-28 08:33N 36°09' W 005°23'1 0.9
2014-Oct-28 07:32N 36°08' W 005°22'0 0.0
2014-Oct-28 06:26N 36°08' W 005°22'0 0.0
2014-Oct-28 05:32N 36°08' W 005°22'0 0.0
2014-Oct-28 04:26N 36°08' W 005°22'1 1.2
2014-Oct-28 03:32N 36°09' W 005°22'0 0.0
2014-Oct-28 02:06N 36°09' W 005°23'0 0.0
2014-Oct-27 23:24N 36°09' W 005°23'0 0.0
2014-Oct-27 20:30N 36°09' W 005°23'0 0.0
2014-Oct-27 18:08N 36°09' W 005°23'0 0.0
2014-Oct-27 17:23N 36°09' W 005°23'0 0.0
2014-Oct-27 16:05N 36°09' W 005°23'0 0.0
2014-Oct-27 14:29N 36°09' W 005°23'0 0.0
2014-Oct-27 13:29N 36°09' W 005°23'0 0.0
2014-Oct-27 10:11N 36°09' W 005°22'0 0.0
2014-Oct-27 09:23N 36°09' W 005°22'2 2.2
2014-Oct-27 08:33N 36°08' W 005°22'0 0.5
2014-Oct-27 07:32N 36°07' W 005°22'0 0.0
2014-Oct-27 06:25N 36°07' W 005°22'0 0.0
2014-Oct-27 05:31N 36°07' W 005°22'0 0.0
2014-Oct-27 04:31N 36°07' W 005°22'0 0.0
2014-Oct-27 03:31N 36°07' W 005°22'0 0.0
2014-Oct-27 02:31N 36°07' W 005°22'0 0.0
2014-Oct-27 01:31N 36°07' W 005°22'0 0.1
2014-Oct-27 00:33N 36°07' W 005°22'2 2.0
2014-Oct-26 23:30N 36°09' W 005°23'6 6.4
2014-Oct-26 22:33N 36°03' W 005°23'10 0.5
2014-Oct-26 04:03N 35°57' W 005°32'2 4.3
2014-Oct-26 03:33N 35°58' W 005°30'8 8.5
2014-Oct-26 02:33N 36°05' W 005°23'3 3.0
2014-Oct-26 01:27N 36°08' W 005°23'0 0.1
2014-Oct-25 23:26N 36°08' W 005°23'0 0.1
2014-Oct-25 22:32N 36°08' W 005°23'0 0.2
2014-Oct-25 21:32N 36°08' W 005°23'0 0.0
2014-Oct-25 20:32N 36°08' W 005°23'0 0.0
2014-Oct-25 19:29N 36°08' W 005°23'0 0.0
2014-Oct-25 18:32N 36°08' W 005°23'0 0.1
2014-Oct-25 17:26N 36°08' W 005°23'0 0.0
2014-Oct-25 16:33N 36°08' W 005°23'2 1.9
2014-Oct-25 15:32N 36°06' W 005°22'0 0.0
2014-Oct-25 14:32N 36°06' W 005°22'0 0.1
2014-Oct-25 13:32N 36°06' W 005°22'0 0.1
2014-Oct-25 12:32N 36°06' W 005°22'0 0.0
2014-Oct-25 11:33N 36°06' W 005°22'3 2.7
2014-Oct-25 10:27N 36°09' W 005°22'0 0.0
2014-Oct-25 08:27N 36°09' W 005°23'1 1.6
2014-Oct-25 07:31N 36°08' W 005°22'0 0.0
2014-Oct-25 06:31N 36°08' W 005°22'0 0.0
2014-Oct-25 05:31N 36°08' W 005°22'0 0.0
2014-Oct-25 04:31N 36°08' W 005°22'0 0.0
2014-Oct-25 03:28N 36°08' W 005°22'0 0.0
2014-Oct-25 02:31N 36°08' W 005°22'0 0.0
2014-Oct-25 01:31N 36°08' W 005°22'3 2.6
2014-Oct-25 00:30N 36°06' W 005°20'3 2.3
2014-Oct-24 23:14N 36°08' W 005°19'0 0.0
2014-Oct-24 22:26N 36°08' W 005°19'0 0.1
2014-Oct-24 21:32N 36°08' W 005°19'0 0.0
2014-Oct-24 20:32N 36°08' W 005°19'0 0.0
2014-Oct-24 19:26N 36°08' W 005°19'0 0.1
2014-Oct-24 18:32N 36°08' W 005°19'0 0.0
2014-Oct-24 17:14N 36°08' W 005°19'0 0.0
2014-Oct-24 16:32N 36°08' W 005°19'0 0.0
2014-Oct-24 15:14N 36°08' W 005°19'0 0.0
2014-Oct-24 14:29N 36°08' W 005°19'0 0.0
2014-Oct-24 12:26N 36°08' W 005°19'0 0.0
2014-Oct-24 11:20N 36°08' W 005°19'0 0.0
2014-Oct-24 10:29N 36°08' W 005°19'0 0.0
2014-Oct-24 09:20N 36°08' W 005°19'0 0.0
2014-Oct-24 08:31N 36°08' W 005°19'0 0.0
2014-Oct-24 07:31N 36°08' W 005°19'0 0.0
2014-Oct-24 06:31N 36°08' W 005°19'0 0.0
2014-Oct-24 05:25N 36°08' W 005°19'0 0.0
2014-Oct-24 04:31N 36°08' W 005°19'0 0.0
2014-Oct-24 03:31N 36°08' W 005°19'0 0.0
2014-Oct-24 02:31N 36°08' W 005°19'4 4.3
2014-Oct-24 01:34N 36°06' W 005°23'2 2.4
2014-Oct-24 00:33N 36°08' W 005°22'0 0.1
2014-Oct-23 23:33N 36°08' W 005°22'0 0.0
2014-Oct-23 22:33N 36°08' W 005°22'0 0.1
2014-Oct-23 21:33N 36°08' W 005°22'0 0.2
2014-Oct-23 20:33N 36°08' W 005°22'0 0.1
2014-Oct-23 19:33N 36°08' W 005°22'0 0.0
2014-Oct-23 18:33N 36°08' W 005°22'1 0.6
2014-Oct-23 17:31N 36°09' W 005°23'0 0.3
2014-Oct-23 16:12N 36°09' W 005°23'0 0.1
2014-Oct-23 15:24N 36°09' W 005°23'0 0.0
2014-Oct-23 14:30N 36°09' W 005°23'0 0.0
2014-Oct-23 13:21N 36°09' W 005°23'0 0.0
2014-Oct-23 12:33N 36°09' W 005°23'0 0.0
2014-Oct-23 10:33N 36°09' W 005°23'2 2.0
2014-Oct-23 09:32N 36°07' W 005°22'0 0.0
2014-Oct-23 08:32N 36°07' W 005°22'0 0.1
2014-Oct-23 07:32N 36°07' W 005°22'0 0.2
2014-Oct-23 06:32N 36°07' W 005°22'0 0.0
2014-Oct-23 05:32N 36°07' W 005°22'0 0.0
2014-Oct-23 04:29N 36°07' W 005°22'0 0.0
2014-Oct-23 03:32N 36°07' W 005°22'0 0.3
2014-Oct-23 02:33N 36°07' W 005°22'2 0.6
2014-Oct-22 22:33N 36°09' W 005°22'0 0.0
2014-Oct-22 20:21N 36°09' W 005°23'0 0.1
2014-Oct-22 19:33N 36°09' W 005°23'0 0.1
2014-Oct-22 18:33N 36°09' W 005°22'0 0.0
2014-Oct-22 17:27N 36°09' W 005°22'0 0.0
2014-Oct-22 16:06N 36°09' W 005°22'1 1.3
2014-Oct-22 15:33N 36°09' W 005°23'8 7.9
2014-Oct-22 14:33N 36°01' W 005°23'2 0.2
2014-Oct-22 03:33N 35°60' W 005°26'8 7.9
2014-Oct-22 02:34N 36°07' W 005°23'1 0.5
2014-Oct-22 01:33N 36°08' W 005°22'0 0.0
2014-Oct-22 00:33N 36°08' W 005°22'0 0.0
2014-Oct-21 23:15N 36°08' W 005°22'0 0.0
2014-Oct-21 22:12N 36°08' W 005°22'0 0.2
2014-Oct-21 21:33N 36°08' W 005°22'0 0.1
2014-Oct-21 20:30N 36°08' W 005°22'0 0.0
2014-Oct-21 19:32N 36°08' W 005°22'0 0.1
2014-Oct-21 18:21N 36°08' W 005°22'1 0.9
2014-Oct-21 17:30N 36°07' W 005°22'0 0.0
2014-Oct-21 16:30N 36°07' W 005°21'0 0.0
2014-Oct-21 15:33N 36°07' W 005°21'0 0.0
2014-Oct-21 14:24N 36°07' W 005°21'0 0.0
2014-Oct-21 13:33N 36°07' W 005°21'0 0.1
2014-Oct-21 12:33N 36°07' W 005°22'0 0.0
2014-Oct-21 11:33N 36°07' W 005°22'0 0.0
2014-Oct-21 10:24N 36°07' W 005°22'0 0.2
2014-Oct-21 09:19N 36°07' W 005°22'2 0.7
2014-Oct-21 06:32N 36°09' W 005°22'0 0.1
2014-Oct-21 05:26N 36°09' W 005°22'1 0.2
2014-Oct-21 02:20N 36°09' W 005°22'0 0.0
2014-Oct-21 01:26N 36°09' W 005°22'0 0.0
2014-Oct-20 19:17N 36°09' W 005°22'2 2.5
2014-Oct-20 18:33N 36°07' W 005°21'  
Track history (hours):
 
Tides and Currents Weather Stations Pressure Air Temp Water Temp Dewpoint Dewpoint Depression Visibility Wind Speed Wind Dir Waves Ship Positions

Aegean Princess

Last reported at 2014-Oct-30 15:26 UTC. Time now 2014-Oct-30 15:54 UTC.
Position N 36°07' W 005°19'.

Length 100 m; draft 6.6 m.

Type: Ship. MMSI: 236111476.

Date/timePositionNaut miles runAvg speedWind from/ knotsBaromVisibWave heightAir tempDewpointWater temp
2014-Oct-30 15:26N 36°07' W 005°19'0 0.0
2014-Oct-30 14:32N 36°07' W 005°19'2 2.1
2014-Oct-30 13:33N 36°06' W 005°20'3 2.9
2014-Oct-30 12:33N 36°08' W 005°22'0 0.0
2014-Oct-30 11:06N 36°08' W 005°22'0 0.0
2014-Oct-30 10:33N 36°08' W 005°22'0 0.1
2014-Oct-30 09:34N 36°08' W 005°22'3 2.9
2014-Oct-30 08:34N 36°07' W 005°19'1 0.4
2014-Oct-30 07:18N 36°07' W 005°19'0 0.0
2014-Oct-30 06:30N 36°07' W 005°19'0 0.0
2014-Oct-30 05:18N 36°07' W 005°19'0 0.0
2014-Oct-30 04:30N 36°07' W 005°19'0 0.0
2014-Oct-30 03:24N 36°07' W 005°19'0 0.0
2014-Oct-30 02:30N 36°07' W 005°19'0 0.0
2014-Oct-30 01:30N 36°07' W 005°18'0 0.0
2014-Oct-30 00:33N 36°07' W 005°19'0 0.0
2014-Oct-29 23:33N 36°07' W 005°19'0 0.0
2014-Oct-29 22:24N 36°07' W 005°19'0 0.0
2014-Oct-29 21:09N 36°08' W 005°19'0 0.0
2014-Oct-29 19:30N 36°07' W 005°19'0 0.0
2014-Oct-29 18:24N 36°07' W 005°19'3 3.6
2014-Oct-29 17:33N 36°06' W 005°22'2 1.6
2014-Oct-29 16:27N 36°07' W 005°22'0 0.1
2014-Oct-29 14:24N 36°08' W 005°23'1 1.2
2014-Oct-29 13:33N 36°08' W 005°23'8 8.5
2014-Oct-29 12:33N 35°60' W 005°23'7 1.7
2014-Oct-29 08:32N 35°56' W 005°30'7 6.7
2014-Oct-29 07:33N 36°01' W 005°25'8 8.1
2014-Oct-29 06:33N 36°09' W 005°22'0 0.0
2014-Oct-28 20:25N 36°09' W 005°22'1 0.7
2014-Oct-28 19:32N 36°09' W 005°22'0 0.1
2014-Oct-28 18:32N 36°09' W 005°22'0 0.1
2014-Oct-28 17:26N 36°09' W 005°22'0 0.1
2014-Oct-28 16:26N 36°09' W 005°22'0 0.0
2014-Oct-28 15:17N 36°09' W 005°22'1 0.8
2014-Oct-28 14:33N 36°09' W 005°22'0 0.1
2014-Oct-28 13:26N 36°09' W 005°23'0 0.0
2014-Oct-28 12:32N 36°09' W 005°23'0 0.0
2014-Oct-28 09:20N 36°09' W 005°23'0 0.1
2014-Oct-28 08:33N 36°09' W 005°23'1 0.9
2014-Oct-28 07:32N 36°08' W 005°22'0 0.0
2014-Oct-28 06:26N 36°08' W 005°22'0 0.0
2014-Oct-28 05:32N 36°08' W 005°22'0 0.0
2014-Oct-28 04:26N 36°08' W 005°22'1 1.2
2014-Oct-28 03:32N 36°09' W 005°22'0 0.0
2014-Oct-28 02:06N 36°09' W 005°23'0 0.0
2014-Oct-27 23:24N 36°09' W 005°23'0 0.0
2014-Oct-27 20:30N 36°09' W 005°23'0 0.0
2014-Oct-27 18:08N 36°09' W 005°23'0 0.0
2014-Oct-27 17:23N 36°09' W 005°23'0 0.0
2014-Oct-27 16:05N 36°09' W 005°23'0 0.0
2014-Oct-27 14:29N 36°09' W 005°23'0 0.0
2014-Oct-27 13:29N 36°09' W 005°23'0 0.0
2014-Oct-27 10:11N 36°09' W 005°22'0 0.0
2014-Oct-27 09:23N 36°09' W 005°22'2 2.2
2014-Oct-27 08:33N 36°08' W 005°22'0 0.5
2014-Oct-27 07:32N 36°07' W 005°22'0 0.0
2014-Oct-27 06:25N 36°07' W 005°22'0 0.0
2014-Oct-27 05:31N 36°07' W 005°22'0 0.0
2014-Oct-27 04:31N 36°07' W 005°22'0 0.0
2014-Oct-27 03:31N 36°07' W 005°22'0 0.0
2014-Oct-27 02:31N 36°07' W 005°22'0 0.0
2014-Oct-27 01:31N 36°07' W 005°22'0 0.1
2014-Oct-27 00:33N 36°07' W 005°22'2 2.0
2014-Oct-26 23:30N 36°09' W 005°23'6 6.4
2014-Oct-26 22:33N 36°03' W 005°23'10 0.5
2014-Oct-26 04:03N 35°57' W 005°32'2 4.3
2014-Oct-26 03:33N 35°58' W 005°30'8 8.5
2014-Oct-26 02:33N 36°05' W 005°23'3 3.0
2014-Oct-26 01:27N 36°08' W 005°23'0 0.1
2014-Oct-25 23:26N 36°08' W 005°23'0 0.1
2014-Oct-25 22:32N 36°08' W 005°23'0 0.2
2014-Oct-25 21:32N 36°08' W 005°23'0 0.0
2014-Oct-25 20:32N 36°08' W 005°23'0 0.0
2014-Oct-25 19:29N 36°08' W 005°23'0 0.0
2014-Oct-25 18:32N 36°08' W 005°23'0 0.1
2014-Oct-25 17:26N 36°08' W 005°23'0 0.0
2014-Oct-25 16:33N 36°08' W 005°23'2 1.9
2014-Oct-25 15:32N 36°06' W 005°22'0 0.0
2014-Oct-25 14:32N 36°06' W 005°22'0 0.1
2014-Oct-25 13:32N 36°06' W 005°22'0 0.1
2014-Oct-25 12:32N 36°06' W 005°22'0 0.0
2014-Oct-25 11:33N 36°06' W 005°22'3 2.7
2014-Oct-25 10:27N 36°09' W 005°22'0 0.0
2014-Oct-25 08:27N 36°09' W 005°23'1 1.6
2014-Oct-25 07:31N 36°08' W 005°22'0 0.0
2014-Oct-25 06:31N 36°08' W 005°22'0 0.0
2014-Oct-25 05:31N 36°08' W 005°22'0 0.0
2014-Oct-25 04:31N 36°08' W 005°22'0 0.0
2014-Oct-25 03:28N 36°08' W 005°22'0 0.0
2014-Oct-25 02:31N 36°08' W 005°22'0 0.0
2014-Oct-25 01:31N 36°08' W 005°22'3 2.6
2014-Oct-25 00:30N 36°06' W 005°20'3 2.3
2014-Oct-24 23:14N 36°08' W 005°19'0 0.0
2014-Oct-24 22:26N 36°08' W 005°19'0 0.1
2014-Oct-24 21:32N 36°08' W 005°19'0 0.0
2014-Oct-24 20:32N 36°08' W 005°19'0 0.0
2014-Oct-24 19:26N 36°08' W 005°19'0 0.1
2014-Oct-24 18:32N 36°08' W 005°19'0 0.0
2014-Oct-24 17:14N 36°08' W 005°19'0 0.0
2014-Oct-24 16:32N 36°08' W 005°19'0 0.0
2014-Oct-24 15:14N 36°08' W 005°19'0 0.0
2014-Oct-24 14:29N 36°08' W 005°19'0 0.0
2014-Oct-24 12:26N 36°08' W 005°19'0 0.0
2014-Oct-24 11:20N 36°08' W 005°19'0 0.0
2014-Oct-24 10:29N 36°08' W 005°19'0 0.0
2014-Oct-24 09:20N 36°08' W 005°19'0 0.0
2014-Oct-24 08:31N 36°08' W 005°19'0 0.0
2014-Oct-24 07:31N 36°08' W 005°19'0 0.0
2014-Oct-24 06:31N 36°08' W 005°19'0 0.0
2014-Oct-24 05:25N 36°08' W 005°19'0 0.0
2014-Oct-24 04:31N 36°08' W 005°19'0 0.0
2014-Oct-24 03:31N 36°08' W 005°19'0 0.0
2014-Oct-24 02:31N 36°08' W 005°19'4 4.3
2014-Oct-24 01:34N 36°06' W 005°23'2 2.4
2014-Oct-24 00:33N 36°08' W 005°22'0 0.1
2014-Oct-23 23:33N 36°08' W 005°22'0 0.0
2014-Oct-23 22:33N 36°08' W 005°22'0 0.1
2014-Oct-23 21:33N 36°08' W 005°22'0 0.2
2014-Oct-23 20:33N 36°08' W 005°22'0 0.1
2014-Oct-23 19:33N 36°08' W 005°22'0 0.0
2014-Oct-23 18:33N 36°08' W 005°22'1 0.6
2014-Oct-23 17:31N 36°09' W 005°23'0 0.3
2014-Oct-23 16:12N 36°09' W 005°23'0 0.1
2014-Oct-23 15:24N 36°09' W 005°23'0 0.0
2014-Oct-23 14:30N 36°09' W 005°23'0 0.0
2014-Oct-23 13:21N 36°09' W 005°23'0 0.0
2014-Oct-23 12:33N 36°09' W 005°23'0 0.0
2014-Oct-23 10:33N 36°09' W 005°23'2 2.0
2014-Oct-23 09:32N 36°07' W 005°22'0 0.0
2014-Oct-23 08:32N 36°07' W 005°22'0 0.1
2014-Oct-23 07:32N 36°07' W 005°22'0 0.2
2014-Oct-23 06:32N 36°07' W 005°22'0 0.0
2014-Oct-23 05:32N 36°07' W 005°22'0 0.0
2014-Oct-23 04:29N 36°07' W 005°22'0 0.0
2014-Oct-23 03:32N 36°07' W 005°22'0 0.3
2014-Oct-23 02:33N 36°07' W 005°22'2 0.6
2014-Oct-22 22:33N 36°09' W 005°22'0 0.0
2014-Oct-22 20:21N 36°09' W 005°23'0 0.1
2014-Oct-22 19:33N 36°09' W 005°23'0 0.1
2014-Oct-22 18:33N 36°09' W 005°22'0 0.0
2014-Oct-22 17:27N 36°09' W 005°22'0 0.0
2014-Oct-22 16:06N 36°09' W 005°22'1 1.3
2014-Oct-22 15:33N 36°09' W 005°23'8 7.9
2014-Oct-22 14:33N 36°01' W 005°23'2 0.2
2014-Oct-22 03:33N 35°60' W 005°26'8 7.9
2014-Oct-22 02:34N 36°07' W 005°23'1 0.5
2014-Oct-22 01:33N 36°08' W 005°22'0 0.0
2014-Oct-22 00:33N 36°08' W 005°22'0 0.0
2014-Oct-21 23:15N 36°08' W 005°22'0 0.0
2014-Oct-21 22:12N 36°08' W 005°22'0 0.2
2014-Oct-21 21:33N 36°08' W 005°22'0 0.1
2014-Oct-21 20:30N 36°08' W 005°22'0 0.0
2014-Oct-21 19:32N 36°08' W 005°22'0 0.1
2014-Oct-21 18:21N 36°08' W 005°22'1 0.9
2014-Oct-21 17:30N 36°07' W 005°22'0 0.0
2014-Oct-21 16:30N 36°07' W 005°21'0 0.0
2014-Oct-21 15:33N 36°07' W 005°21'0 0.0
2014-Oct-21 14:24N 36°07' W 005°21'0 0.0
2014-Oct-21 13:33N 36°07' W 005°21'0 0.1
2014-Oct-21 12:33N 36°07' W 005°22'0 0.0
2014-Oct-21 11:33N 36°07' W 005°22'0 0.0
2014-Oct-21 10:24N 36°07' W 005°22'0 0.2
2014-Oct-21 09:19N 36°07' W 005°22'2 0.7
2014-Oct-21 06:32N 36°09' W 005°22'0 0.1
2014-Oct-21 05:26N 36°09' W 005°22'1 0.2
2014-Oct-21 02:20N 36°09' W 005°22'0 0.0
2014-Oct-21 01:26N 36°09' W 005°22'0 0.0
2014-Oct-20 19:17N 36°09' W 005°22'2 2.5
2014-Oct-20 18:33N 36°07' W 005°21'  

Dump ship's entire track history